createdAt,value
2023-01-03T00:00:00.192Z,9.16
2023-01-03T00:00:12.777Z,9.11
2023-01-03T00:00:24.877Z,9.15
2023-01-03T00:00:37.423Z,9.15
2023-01-03T00:00:49.662Z,9.17
2023-01-03T00:01:06.879Z,9.15
2023-01-03T00:01:19.288Z,9.10
2023-01-03T00:01:32.189Z,9.13
2023-01-03T00:01:44.651Z,9.14
2023-01-03T00:01:56.675Z,9.09
2023-01-03T00:02:08.738Z,9.07
2023-01-03T00:02:20.740Z,9.12
2023-01-03T00:02:32.711Z,9.12
2023-01-03T00:02:45.049Z,9.08
2023-01-03T00:02:57.811Z,9.08
2023-01-03T00:03:09.926Z,9.08
2023-01-03T00:03:21.957Z,9.06
2023-01-03T00:03:33.909Z,9.04
2023-01-03T00:03:46.063Z,9.08
2023-01-03T00:03:59.033Z,8.98
2023-01-03T00:04:11.824Z,8.93
2023-01-03T00:04:23.876Z,8.94
2023-01-03T00:04:35.939Z,8.95
2023-01-03T00:04:49.929Z,8.96
2023-01-03T00:05:02.731Z,8.96
2023-01-03T00:05:14.850Z,8.95
2023-01-03T00:05:26.856Z,8.92
2023-01-03T00:05:38.829Z,8.97
2023-01-03T00:05:50.753Z,8.95
2023-01-03T00:06:02.690Z,8.93
2023-01-03T00:06:17.431Z,8.90
2023-01-03T00:06:32.606Z,8.91
2023-01-03T00:06:48.509Z,8.88
2023-01-03T00:07:00.423Z,8.91
2023-01-03T00:07:12.328Z,8.89
2023-01-03T00:07:39.123Z,8.90
2023-01-03T00:07:51.071Z,8.95
2023-01-03T00:08:02.995Z,8.96
2023-01-03T00:08:15.595Z,8.97
2023-01-03T00:08:28.817Z,9.00
2023-01-03T00:08:40.905Z,9.00
2023-01-03T00:08:54.656Z,9.04
2023-01-03T00:09:11.916Z,9.07
2023-01-03T00:09:24.723Z,9.12
2023-01-03T00:09:36.628Z,9.12
2023-01-03T00:09:48.515Z,8.95
2023-01-03T00:10:05.009Z,8.95
2023-01-03T00:10:19.934Z,8.85
2023-01-03T00:10:31.871Z,8.89
2023-01-03T00:10:43.791Z,8.93
2023-01-03T00:10:55.764Z,8.91
2023-01-03T00:11:14.765Z,8.95
2023-01-03T00:11:55.695Z,8.93
2023-01-03T00:12:30.823Z,8.97
2023-01-03T00:12:43.459Z,8.98
2023-01-03T00:12:57.576Z,8.99
2023-01-03T00:13:09.579Z,8.99
2023-01-03T00:13:21.500Z,8.88
2023-01-03T00:13:33.384Z,8.94
2023-01-03T00:13:45.857Z,8.96
2023-01-03T00:13:57.774Z,8.95
2023-01-03T00:14:12.002Z,8.96
2023-01-03T00:14:28.654Z,9.02
2023-01-03T00:14:42.879Z,9.02
2023-01-03T00:14:54.987Z,9.03
2023-01-03T00:15:07.432Z,9.03
2023-01-03T00:15:19.511Z,9.01
2023-01-03T00:15:35.388Z,9.01
2023-01-03T00:15:47.331Z,9.06
2023-01-03T00:15:59.289Z,9.01
2023-01-03T00:16:19.272Z,9.01
2023-01-03T00:16:31.302Z,9.06
2023-01-03T00:16:43.440Z,9.08
2023-01-03T00:16:59.429Z,9.10
2023-01-03T00:17:12.621Z,9.06
2023-01-03T00:17:25.502Z,9.03
2023-01-03T00:17:37.892Z,9.00
2023-01-03T00:17:52.011Z,9.01
2023-01-03T00:18:04.252Z,9.03
2023-01-03T00:18:18.842Z,9.08
2023-01-03T00:18:30.799Z,9.09
2023-01-03T00:18:42.767Z,9.10
2023-01-03T00:18:54.668Z,9.04
2023-01-03T00:19:14.479Z,9.04
2023-01-03T00:19:29.286Z,9.03
2023-01-03T00:19:43.540Z,9.06
2023-01-03T00:19:55.592Z,9.09
2023-01-03T00:20:09.533Z,9.04
2023-01-03T00:20:22.469Z,9.01
2023-01-03T00:20:34.645Z,9.00
2023-01-03T00:20:46.690Z,8.97
2023-01-03T00:21:04.085Z,8.92
2023-01-03T00:21:16.006Z,8.95
2023-01-03T00:21:27.932Z,8.94
2023-01-03T00:21:41.177Z,8.94
2023-01-03T00:21:53.963Z,8.97
2023-01-03T00:22:06.490Z,8.92
2023-01-03T00:22:18.620Z,8.97
2023-01-03T00:22:33.573Z,9.02
2023-01-03T00:22:45.517Z,9.00
2023-01-03T00:22:59.802Z,8.95
2023-01-03T00:23:11.715Z,8.96
2023-01-03T00:23:23.755Z,8.96
2023-01-03T00:23:35.843Z,8.98
2023-01-03T00:23:47.762Z,8.98
2023-01-03T00:24:00.030Z,9.00
2023-01-03T00:24:12.188Z,8.96
2023-01-03T00:24:24.616Z,9.00
2023-01-03T00:24:36.600Z,9.00
2023-01-03T00:24:49.423Z,8.94
2023-01-03T00:25:01.394Z,8.94
2023-01-03T00:25:13.489Z,8.98
2023-01-03T00:25:26.893Z,8.89
2023-01-03T00:25:38.908Z,8.92
2023-01-03T00:25:50.854Z,8.94
2023-01-03T00:26:14.155Z,8.89
2023-01-03T00:26:26.089Z,8.87
2023-01-03T00:26:38.645Z,8.92
2023-01-03T00:26:50.993Z,8.91
2023-01-03T00:27:03.219Z,8.98
2023-01-03T00:27:16.331Z,8.99
2023-01-03T00:27:28.419Z,8.96
2023-01-03T00:27:40.391Z,9.00
2023-01-03T00:27:52.316Z,9.02
2023-01-03T00:28:04.489Z,9.00
2023-01-03T00:28:16.358Z,9.00
2023-01-03T00:28:28.286Z,9.05
2023-01-03T00:28:40.251Z,9.03
2023-01-03T00:28:52.260Z,9.01
2023-01-03T00:29:04.471Z,8.99
2023-01-03T00:29:16.920Z,9.02
2023-01-03T00:29:29.415Z,8.99
2023-01-03T00:29:42.496Z,9.03
2023-01-03T00:29:54.523Z,9.03
2023-01-03T00:30:07.077Z,8.96
2023-01-03T00:30:19.363Z,9.00
2023-01-03T00:30:31.330Z,8.97
2023-01-03T00:30:43.349Z,9.00
2023-01-03T00:30:55.322Z,8.96
2023-01-03T00:31:09.593Z,8.96
2023-01-03T00:31:21.745Z,9.00
2023-01-03T00:31:34.388Z,8.94
2023-01-03T00:31:46.570Z,8.96
2023-01-03T00:31:58.929Z,8.96
2023-01-03T00:32:13.976Z,9.01
2023-01-03T00:32:26.028Z,8.97
2023-01-03T00:32:37.983Z,9.01
2023-01-03T00:32:49.918Z,9.01
2023-01-03T00:33:02.010Z,9.00
2023-01-03T00:33:13.895Z,8.93
2023-01-03T00:33:25.884Z,8.95
2023-01-03T00:33:39.413Z,8.99
2023-01-03T00:33:51.722Z,9.02
2023-01-03T00:34:04.481Z,9.03
2023-01-03T00:34:16.638Z,8.99
2023-01-03T00:34:29.064Z,9.02
2023-01-03T00:34:43.784Z,9.02
2023-01-03T00:34:59.013Z,9.03
2023-01-03T00:35:15.042Z,9.05
2023-01-03T00:35:27.037Z,9.05
2023-01-03T00:35:41.234Z,9.04
2023-01-03T00:35:53.336Z,9.07
2023-01-03T00:36:07.562Z,9.05
2023-01-03T00:36:20.155Z,9.01
2023-01-03T00:36:32.550Z,8.99
2023-01-03T00:36:47.518Z,8.96
2023-01-03T00:36:59.700Z,8.99
2023-01-03T00:37:13.051Z,8.94
2023-01-03T00:37:24.979Z,8.89
2023-01-03T00:37:36.958Z,8.96
2023-01-03T00:37:48.912Z,8.95
2023-01-03T00:38:00.884Z,8.96
2023-01-03T00:38:12.822Z,8.88
2023-01-03T00:38:24.749Z,8.90
2023-01-03T00:38:37.998Z,8.88
2023-01-03T00:38:50.030Z,8.86
2023-01-03T00:39:02.045Z,8.87
2023-01-03T00:39:14.021Z,8.88
2023-01-03T00:39:26.078Z,8.87
2023-01-03T00:39:38.136Z,8.88
2023-01-03T00:39:50.106Z,8.87
2023-01-03T00:40:02.482Z,8.86
2023-01-03T00:40:14.422Z,8.86
2023-01-03T00:40:26.333Z,8.86
2023-01-03T00:40:38.329Z,8.85
2023-01-03T00:40:50.271Z,8.87
2023-01-03T00:41:05.849Z,8.85
2023-01-03T00:41:19.485Z,8.87
2023-01-03T00:41:31.639Z,8.86
2023-01-03T00:41:43.695Z,8.86
2023-01-03T00:41:55.659Z,8.83
2023-01-03T00:42:07.836Z,8.87
2023-01-03T00:42:19.771Z,8.92
2023-01-03T00:42:51.739Z,8.90
2023-01-03T00:43:22.058Z,8.88
2023-01-03T00:43:35.127Z,8.90
2023-01-03T00:43:49.060Z,8.86
2023-01-03T00:44:01.199Z,8.88
2023-01-03T00:44:13.684Z,8.90
2023-01-03T00:44:25.652Z,8.83
2023-01-03T00:44:37.645Z,8.83
2023-01-03T00:44:49.537Z,8.83
2023-01-03T00:45:01.483Z,8.85
2023-01-03T00:45:17.657Z,8.89
2023-01-03T00:45:35.285Z,8.88
2023-01-03T00:45:47.552Z,8.91
2023-01-03T00:46:00.202Z,8.93
2023-01-03T00:46:14.071Z,8.86
2023-01-03T00:46:26.335Z,8.83
2023-01-03T00:46:38.468Z,8.86
2023-01-03T00:46:50.586Z,8.83
2023-01-03T00:47:02.565Z,8.86
2023-01-03T00:47:14.471Z,8.91
2023-01-03T00:47:26.393Z,8.94
2023-01-03T00:47:38.358Z,8.85
2023-01-03T00:47:50.367Z,8.82
2023-01-03T00:48:02.404Z,8.89
2023-01-03T00:48:14.348Z,8.87
2023-01-03T00:48:27.606Z,8.83
2023-01-03T00:48:40.600Z,8.85
2023-01-03T00:48:52.625Z,8.92
2023-01-03T00:49:05.278Z,8.93
2023-01-03T00:49:17.405Z,8.91
2023-01-03T00:49:29.333Z,8.95
2023-01-03T00:49:41.305Z,8.83
2023-01-03T00:49:53.221Z,8.86
2023-01-03T00:50:05.477Z,8.88
2023-01-03T00:50:17.544Z,8.89
2023-01-03T00:50:29.521Z,8.85
2023-01-03T00:50:44.198Z,8.83
2023-01-03T00:50:56.151Z,8.90
2023-01-03T00:51:09.014Z,8.90
2023-01-03T00:51:23.895Z,8.93
2023-01-03T00:51:38.637Z,8.92
2023-01-03T00:51:50.692Z,8.91
2023-01-03T00:52:02.835Z,8.91
2023-01-03T00:52:14.754Z,8.92
2023-01-03T00:52:26.695Z,8.94
2023-01-03T00:52:38.631Z,8.91
2023-01-03T00:52:50.577Z,8.91
2023-01-03T00:53:02.495Z,8.88
2023-01-03T00:53:14.568Z,8.86
2023-01-03T00:53:26.478Z,8.86
2023-01-03T00:53:39.929Z,8.88
2023-01-03T00:53:55.143Z,8.88
2023-01-03T00:54:08.770Z,8.88
2023-01-03T00:54:21.993Z,8.89
2023-01-03T00:54:33.986Z,8.91
2023-01-03T00:54:45.897Z,8.85
2023-01-03T00:54:57.837Z,8.87
2023-01-03T00:55:10.483Z,8.88
2023-01-03T00:55:22.428Z,8.86
2023-01-03T00:55:35.028Z,8.84
2023-01-03T00:55:47.771Z,8.83
2023-01-03T00:56:12.158Z,8.85
2023-01-03T00:56:26.654Z,8.76
2023-01-03T00:56:41.464Z,8.71
2023-01-03T00:56:53.531Z,8.73
2023-01-03T00:57:05.442Z,8.69
2023-01-03T00:57:17.387Z,8.65
2023-01-03T00:57:29.347Z,8.72
2023-01-03T00:57:41.241Z,8.76
2023-01-03T00:57:53.300Z,8.78
2023-01-03T00:58:05.231Z,8.83
2023-01-03T00:58:17.210Z,8.84
2023-01-03T00:58:32.625Z,8.90
2023-01-03T00:58:44.973Z,8.85
2023-01-03T00:59:01.130Z,8.83
2023-01-03T00:59:14.728Z,8.77
2023-01-03T00:59:26.958Z,8.78
2023-01-03T00:59:38.887Z,8.78
2023-01-03T00:59:50.774Z,8.83
2023-01-03T01:00:03.876Z,8.77
2023-01-03T01:00:15.940Z,8.83
2023-01-03T01:00:27.894Z,8.85
2023-01-03T01:00:40.081Z,8.91
2023-01-03T01:00:51.965Z,8.97
2023-01-03T01:01:06.787Z,9.02
2023-01-03T01:01:24.692Z,9.01
2023-01-03T01:01:47.674Z,8.99
2023-01-03T01:02:00.055Z,8.97
2023-01-03T01:02:12.266Z,8.95
2023-01-03T01:02:24.497Z,8.94
2023-01-03T01:02:36.863Z,8.94
2023-01-03T01:02:56.400Z,8.95
2023-01-03T01:03:08.724Z,8.90
2023-01-03T01:03:20.906Z,8.89
2023-01-03T01:03:34.356Z,8.86
2023-01-03T01:03:49.329Z,8.89
2023-01-03T01:04:17.779Z,8.89
2023-01-03T01:04:31.666Z,8.89
2023-01-03T01:04:43.584Z,8.94
2023-01-03T01:04:55.543Z,8.94
2023-01-03T01:05:07.715Z,8.90
2023-01-03T01:05:20.192Z,8.92
2023-01-03T01:05:32.194Z,8.85
2023-01-03T01:05:44.171Z,8.74
2023-01-03T01:05:56.138Z,8.70
2023-01-03T01:06:16.053Z,8.77
2023-01-03T01:06:31.068Z,8.68
2023-01-03T01:06:46.794Z,8.69
2023-01-03T01:07:01.987Z,8.72
2023-01-03T01:07:14.052Z,8.72
2023-01-03T01:07:26.024Z,8.75
2023-01-03T01:07:37.996Z,8.73
2023-01-03T01:07:49.994Z,8.76
2023-01-03T01:08:04.583Z,8.69
2023-01-03T01:08:16.515Z,8.72
2023-01-03T01:08:28.482Z,8.68
2023-01-03T01:08:41.023Z,8.72
2023-01-03T01:08:55.611Z,8.72
2023-01-03T01:09:12.885Z,8.71
2023-01-03T01:09:33.221Z,8.61
2023-01-03T01:09:45.357Z,8.54
2023-01-03T01:09:57.374Z,8.60
2023-01-03T01:10:09.463Z,8.59
2023-01-03T01:10:23.049Z,8.67
2023-01-03T01:10:35.008Z,8.70
2023-01-03T01:11:01.782Z,8.67
2023-01-03T01:11:15.800Z,8.64
2023-01-03T01:11:28.580Z,8.66
2023-01-03T01:11:41.279Z,8.70
2023-01-03T01:11:53.820Z,8.71
2023-01-03T01:12:07.320Z,8.73
2023-01-03T01:12:19.364Z,8.77
2023-01-03T01:12:31.344Z,8.73
2023-01-03T01:12:43.307Z,8.65
2023-01-03T01:12:57.966Z,8.66
2023-01-03T01:13:09.886Z,8.69
2023-01-03T01:13:21.791Z,8.69
2023-01-03T01:13:34.367Z,8.71
2023-01-03T01:13:47.025Z,8.74
2023-01-03T01:13:59.202Z,8.66
2023-01-03T01:14:20.846Z,8.68
2023-01-03T01:14:33.631Z,8.69
2023-01-03T01:14:45.773Z,8.72
2023-01-03T01:14:57.786Z,8.73
2023-01-03T01:15:09.973Z,8.75
2023-01-03T01:15:23.963Z,8.71
2023-01-03T01:15:35.915Z,8.75
2023-01-03T01:15:47.910Z,8.78
2023-01-03T01:16:04.791Z,8.75
2023-01-03T01:16:19.573Z,8.78
2023-01-03T01:16:32.600Z,8.78
2023-01-03T01:16:44.529Z,8.78
2023-01-03T01:17:01.826Z,8.79
2023-01-03T01:17:17.832Z,8.77
2023-01-03T01:17:32.702Z,8.78
2023-01-03T01:17:44.623Z,8.76
2023-01-03T01:17:57.621Z,8.82
2023-01-03T01:18:09.594Z,8.80
2023-01-03T01:18:21.608Z,8.83
2023-01-03T01:18:34.674Z,8.84
2023-01-03T01:18:48.189Z,8.85
2023-01-03T01:19:00.534Z,8.86
2023-01-03T01:19:12.506Z,8.89
2023-01-03T01:19:29.991Z,8.91
2023-01-03T01:19:43.932Z,8.90
2023-01-03T01:19:55.859Z,8.85
2023-01-03T01:20:08.289Z,8.86
2023-01-03T01:20:20.313Z,8.84
2023-01-03T01:20:32.255Z,8.80
2023-01-03T01:20:44.212Z,8.78
2023-01-03T01:20:56.536Z,8.77
2023-01-03T01:21:14.175Z,8.76
2023-01-03T01:21:29.707Z,8.76
2023-01-03T01:21:42.386Z,8.80
2023-01-03T01:21:54.995Z,8.79
2023-01-03T01:22:07.664Z,8.71
2023-01-03T01:22:19.558Z,8.75
2023-01-03T01:22:31.623Z,8.78
2023-01-03T01:22:43.588Z,8.83
2023-01-03T01:22:55.490Z,8.85
2023-01-03T01:23:07.425Z,8.86
2023-01-03T01:23:19.392Z,8.89
2023-01-03T01:23:31.434Z,8.88
2023-01-03T01:23:44.366Z,8.90
2023-01-03T01:23:57.828Z,8.89
2023-01-03T01:24:14.291Z,8.87
2023-01-03T01:24:30.480Z,8.87
2023-01-03T01:24:42.783Z,8.84
2023-01-03T01:24:54.772Z,8.87
2023-01-03T01:25:06.958Z,8.87
2023-01-03T01:25:18.925Z,8.84
2023-01-03T01:25:34.120Z,8.84
2023-01-03T01:25:46.037Z,8.83
2023-01-03T01:26:02.279Z,8.86
2023-01-03T01:26:18.811Z,8.79
2023-01-03T01:26:30.937Z,8.72
2023-01-03T01:26:45.957Z,8.71
2023-01-03T01:26:57.997Z,8.71
2023-01-03T01:27:10.558Z,8.67
2023-01-03T01:27:22.663Z,8.71
2023-01-03T01:27:34.599Z,8.69
2023-01-03T01:27:46.494Z,8.68
2023-01-03T01:27:59.413Z,8.70
2023-01-03T01:28:11.467Z,8.66
2023-01-03T01:28:23.400Z,8.64
2023-01-03T01:28:35.314Z,8.62
2023-01-03T01:28:48.110Z,8.66
2023-01-03T01:29:00.062Z,8.67
2023-01-03T01:29:13.416Z,8.69
2023-01-03T01:29:25.679Z,8.68
2023-01-03T01:29:38.424Z,8.69
2023-01-03T01:29:50.460Z,8.68
2023-01-03T01:30:02.526Z,8.70
2023-01-03T01:30:14.497Z,8.70
2023-01-03T01:30:26.459Z,8.70
2023-01-03T01:30:38.898Z,8.70
2023-01-03T01:30:50.983Z,8.71
2023-01-03T01:31:04.691Z,8.74
2023-01-03T01:31:18.773Z,8.73
2023-01-03T01:31:31.455Z,8.70
2023-01-03T01:31:44.454Z,8.68
2023-01-03T01:31:56.536Z,8.67
2023-01-03T01:32:08.531Z,8.64
2023-01-03T01:32:20.475Z,8.66
2023-01-03T01:32:32.522Z,8.70
2023-01-03T01:32:44.436Z,8.65
2023-01-03T01:32:59.257Z,8.62
2023-01-03T01:33:11.306Z,8.62
2023-01-03T01:33:23.204Z,8.65
2023-01-03T01:33:36.507Z,8.67
2023-01-03T01:33:49.037Z,8.71
2023-01-03T01:34:01.051Z,8.70
2023-01-03T01:34:14.172Z,8.64
2023-01-03T01:34:26.103Z,8.60
2023-01-03T01:34:38.440Z,8.57
2023-01-03T01:34:50.366Z,8.57
2023-01-03T01:35:02.494Z,8.56
2023-01-03T01:35:14.439Z,8.55
2023-01-03T01:35:26.384Z,8.54
2023-01-03T01:35:38.482Z,8.56
2023-01-03T01:35:50.585Z,8.59
2023-01-03T01:36:12.460Z,8.58
2023-01-03T01:36:29.728Z,8.63
2023-01-03T01:36:42.978Z,8.65
2023-01-03T01:36:54.925Z,8.60
2023-01-03T01:37:07.548Z,8.63
2023-01-03T01:37:19.496Z,8.65
2023-01-03T01:37:31.546Z,8.65
2023-01-03T01:37:43.441Z,8.61
2023-01-03T01:37:56.395Z,8.65
2023-01-03T01:38:08.328Z,8.64
2023-01-03T01:38:21.292Z,8.64
2023-01-03T01:38:33.259Z,8.67
2023-01-03T01:38:47.079Z,8.67
2023-01-03T01:39:01.608Z,8.69
2023-01-03T01:39:25.178Z,8.71
2023-01-03T01:39:37.195Z,8.75
2023-01-03T01:39:49.087Z,8.76
2023-01-03T01:40:01.031Z,8.75
2023-01-03T01:40:12.975Z,8.73
2023-01-03T01:40:24.952Z,8.69
2023-01-03T01:40:36.977Z,8.70
2023-01-03T01:40:48.921Z,8.72
2023-01-03T01:41:01.061Z,8.70
2023-01-03T01:41:37.254Z,8.75
2023-01-03T01:42:15.021Z,8.74
2023-01-03T01:42:49.096Z,8.79
2023-01-03T01:43:40.819Z,8.78
2023-01-03T01:44:17.714Z,8.70
2023-01-03T01:45:03.548Z,8.80
2023-01-03T01:45:15.548Z,8.77
2023-01-03T01:45:27.499Z,8.78
2023-01-03T01:45:39.839Z,8.79
2023-01-03T01:45:52.988Z,8.77
2023-01-03T01:46:25.610Z,8.77
2023-01-03T01:46:40.783Z,8.77
2023-01-03T01:46:52.934Z,8.78
2023-01-03T01:47:27.976Z,8.82
2023-01-03T01:47:47.237Z,8.79
2023-01-03T01:48:05.788Z,8.79
2023-01-03T01:48:17.786Z,8.78
2023-01-03T01:48:29.763Z,8.76
2023-01-03T01:48:42.346Z,8.75
2023-01-03T01:49:05.698Z,8.68
2023-01-03T01:49:25.755Z,8.72
2023-01-03T01:49:37.900Z,8.70
2023-01-03T01:49:58.747Z,8.72
2023-01-03T01:50:28.726Z,8.68
2023-01-03T01:50:46.206Z,8.70
2023-01-03T01:50:58.465Z,8.65
2023-01-03T01:51:11.856Z,8.63
2023-01-03T01:51:26.615Z,8.62
2023-01-03T01:51:38.613Z,8.65
2023-01-03T01:51:50.969Z,8.66
2023-01-03T01:52:03.439Z,8.69
2023-01-03T01:52:18.651Z,8.72
2023-01-03T01:52:33.746Z,8.73
2023-01-03T01:53:00.730Z,8.76
2023-01-03T01:53:16.936Z,8.75
2023-01-03T01:53:33.260Z,8.78
2023-01-03T01:53:45.197Z,8.80
2023-01-03T01:54:00.470Z,8.77
2023-01-03T01:54:12.853Z,8.77
2023-01-03T01:54:24.852Z,8.75
2023-01-03T01:54:37.762Z,8.77
2023-01-03T01:54:53.350Z,8.79
2023-01-03T01:55:08.156Z,8.83
2023-01-03T01:55:24.641Z,8.86
2023-01-03T01:55:46.946Z,8.87
2023-01-03T01:56:23.385Z,8.88
2023-01-03T01:56:43.121Z,8.83
2023-01-03T01:56:55.062Z,8.84
2023-01-03T01:57:09.571Z,8.79
2023-01-03T01:57:24.262Z,8.76
2023-01-03T01:57:38.583Z,8.77
2023-01-03T01:57:51.095Z,8.73
2023-01-03T01:58:03.292Z,8.74
2023-01-03T01:58:16.241Z,8.70
2023-01-03T01:58:34.799Z,8.66
2023-01-03T01:58:50.423Z,8.68
2023-01-03T01:59:03.312Z,8.61
2023-01-03T01:59:15.970Z,8.65
2023-01-03T01:59:28.433Z,8.62
2023-01-03T01:59:40.413Z,8.65
2023-01-03T01:59:52.569Z,8.67
2023-01-03T02:00:07.667Z,8.70
2023-01-03T02:00:20.769Z,8.73
2023-01-03T02:00:33.552Z,8.73
2023-01-03T02:00:45.529Z,8.75
2023-01-03T02:00:58.728Z,8.72
2023-01-03T02:01:16.377Z,8.74
2023-01-03T02:01:30.273Z,8.74
2023-01-03T02:01:45.153Z,8.77
2023-01-03T02:01:57.259Z,8.76
2023-01-03T02:02:10.710Z,8.77
2023-01-03T02:02:23.865Z,8.75
2023-01-03T02:02:36.069Z,8.72
2023-01-03T02:02:50.747Z,8.69
2023-01-03T02:03:03.807Z,8.68
2023-01-03T02:03:15.883Z,8.69
2023-01-03T02:03:27.913Z,8.70
2023-01-03T02:03:42.420Z,8.69
2023-01-03T02:04:01.309Z,8.74
2023-01-03T02:04:27.008Z,8.70
2023-01-03T02:04:40.507Z,8.72
2023-01-03T02:06:20.034Z,8.68
2023-01-03T02:06:33.367Z,8.67
2023-01-03T02:06:45.824Z,8.70
2023-01-03T02:06:58.794Z,8.69
2023-01-03T02:07:10.794Z,8.72
2023-01-03T02:07:23.821Z,8.74
2023-01-03T02:07:38.090Z,8.75
2023-01-03T02:07:51.521Z,8.75
2023-01-03T02:08:04.402Z,8.77
2023-01-03T02:08:16.491Z,8.78
2023-01-03T02:08:28.850Z,8.71
2023-01-03T02:08:41.294Z,8.73
2023-01-03T02:08:53.209Z,8.72
2023-01-03T02:09:05.184Z,8.75
2023-01-03T02:09:17.364Z,8.78
2023-01-03T02:09:32.206Z,8.76
2023-01-03T02:09:45.430Z,8.75
2023-01-03T02:09:58.777Z,8.76
2023-01-03T02:10:10.915Z,8.77
2023-01-03T02:10:57.622Z,8.80
2023-01-03T02:11:09.711Z,8.77
2023-01-03T02:12:13.719Z,8.83
2023-01-03T02:12:56.253Z,8.71
2023-01-03T02:13:49.158Z,8.68
2023-01-03T02:14:03.948Z,8.58
2023-01-03T02:14:49.658Z,8.50
2023-01-03T02:15:25.276Z,8.62
2023-01-03T02:15:52.220Z,8.56
2023-01-03T02:16:04.296Z,8.60
2023-01-03T02:16:31.283Z,8.65
2023-01-03T02:17:06.009Z,8.64
2023-01-03T02:17:25.025Z,8.60
2023-01-03T02:18:02.425Z,8.63
2023-01-03T02:18:51.375Z,8.66
2023-01-03T02:19:42.552Z,8.65
2023-01-03T02:20:09.697Z,8.59
2023-01-03T02:20:43.148Z,8.59
2023-01-03T02:21:18.241Z,8.48
2023-01-03T02:21:40.632Z,8.54
2023-01-03T02:22:14.650Z,8.55
2023-01-03T02:22:32.488Z,8.51
2023-01-03T02:23:05.554Z,8.47
2023-01-03T02:23:54.634Z,8.48
2023-01-03T02:24:47.738Z,8.40
2023-01-03T02:25:29.045Z,8.39
2023-01-03T02:25:43.635Z,8.42
2023-01-03T02:26:01.126Z,8.42
2023-01-03T02:26:30.829Z,8.36
2023-01-03T02:26:48.425Z,8.36
2023-01-03T02:27:20.540Z,8.33
2023-01-03T02:28:07.531Z,8.33
2023-01-03T02:28:49.154Z,8.28
2023-01-03T02:29:19.676Z,8.29
2023-01-03T02:29:50.590Z,8.19
2023-01-03T02:30:05.073Z,8.19
2023-01-03T02:30:28.166Z,8.21
2023-01-03T02:30:52.783Z,8.14
2023-01-03T02:31:16.558Z,8.09
2023-01-03T02:31:41.159Z,8.06
2023-01-03T02:31:53.053Z,8.07
2023-01-03T02:32:16.692Z,8.06
2023-01-03T02:32:43.178Z,8.02
2023-01-03T02:33:18.616Z,8.06
2023-01-03T02:33:35.173Z,8.12
2023-01-03T02:34:13.557Z,8.17
2023-01-03T02:34:43.239Z,8.20
2023-01-03T02:35:32.375Z,8.09
2023-01-03T02:36:26.252Z,7.99
2023-01-03T02:36:40.686Z,7.99
2023-01-03T02:36:58.606Z,8.04
2023-01-03T02:37:28.554Z,8.03
2023-01-03T02:37:55.099Z,8.03
2023-01-03T02:38:31.627Z,8.10
2023-01-03T02:38:55.583Z,8.17
2023-01-03T02:39:23.962Z,8.22
2023-01-03T02:39:48.286Z,8.28
2023-01-03T02:40:07.885Z,8.32
2023-01-03T02:40:34.954Z,8.34
2023-01-03T02:41:05.185Z,8.30
2023-01-03T02:41:45.725Z,8.19
2023-01-03T02:42:58.773Z,8.16
2023-01-03T02:43:13.223Z,8.04
2023-01-03T02:43:35.651Z,8.02
2023-01-03T02:44:01.390Z,7.97
2023-01-03T02:44:26.655Z,7.91
2023-01-03T02:44:44.900Z,7.87
2023-01-03T02:45:43.450Z,7.67
2023-01-03T02:46:33.173Z,7.60
2023-01-03T02:47:07.123Z,7.54
2023-01-03T02:47:25.140Z,7.58
2023-01-03T02:47:49.116Z,7.55
2023-01-03T02:48:13.019Z,7.40
2023-01-03T02:48:40.715Z,7.44
2023-01-03T02:48:55.603Z,7.43
2023-01-03T02:49:10.213Z,7.38
2023-01-03T02:49:29.027Z,7.32
2023-01-03T02:49:49.222Z,7.28
2023-01-03T02:50:05.688Z,7.27
2023-01-03T02:50:22.284Z,7.25
2023-01-03T02:50:58.865Z,7.19
2023-01-03T02:51:19.170Z,7.11
2023-01-03T02:51:43.103Z,7.11
2023-01-03T02:52:00.899Z,7.04
2023-01-03T02:52:33.124Z,7.04
2023-01-03T02:52:47.368Z,7.05
2023-01-03T02:53:06.204Z,7.00
2023-01-03T02:53:27.148Z,6.95
2023-01-03T02:53:43.254Z,6.95
2023-01-03T02:53:57.956Z,6.95
2023-01-03T02:54:14.507Z,6.95
2023-01-03T02:55:05.633Z,6.84
2023-01-03T02:55:22.868Z,6.79
2023-01-03T02:55:37.304Z,6.79
2023-01-03T02:55:53.083Z,6.79
2023-01-03T02:56:09.982Z,6.75
2023-01-03T02:56:27.508Z,6.70
2023-01-03T02:56:44.733Z,6.69
2023-01-03T02:57:18.439Z,6.66
2023-01-03T02:57:38.022Z,6.63
2023-01-03T02:57:55.815Z,6.61
2023-01-03T02:58:16.575Z,6.60
2023-01-03T02:58:31.988Z,6.57
2023-01-03T02:58:48.277Z,6.56
2023-01-03T02:59:05.037Z,6.53
2023-01-03T02:59:24.606Z,6.43
2023-01-03T02:59:43.982Z,6.41
2023-01-03T03:00:02.039Z,6.40
2023-01-03T03:00:17.842Z,6.40
2023-01-03T03:00:33.126Z,6.44
2023-01-03T03:00:49.856Z,6.45
2023-01-03T03:01:03.892Z,6.44
2023-01-03T03:01:18.375Z,6.36
2023-01-03T03:01:31.718Z,6.35
2023-01-03T03:01:45.195Z,6.28
2023-01-03T03:01:59.146Z,6.30
2023-01-03T03:02:13.177Z,6.35
2023-01-03T03:02:29.297Z,6.39
2023-01-03T03:02:49.912Z,6.46
2023-01-03T03:03:09.668Z,6.47
2023-01-03T03:03:26.431Z,6.49
2023-01-03T03:03:40.139Z,6.46
2023-01-03T03:03:52.945Z,6.49
2023-01-03T03:04:06.568Z,6.50
2023-01-03T03:04:20.002Z,6.55
2023-01-03T03:04:35.342Z,6.55
2023-01-03T03:04:51.306Z,6.54
2023-01-03T03:05:08.544Z,6.56
2023-01-03T03:05:28.635Z,6.63
2023-01-03T03:05:52.818Z,6.69
2023-01-03T03:06:08.806Z,6.76
2023-01-03T03:06:41.556Z,6.85
2023-01-03T03:07:27.819Z,6.95
2023-01-03T03:07:40.916Z,6.98
2023-01-03T03:07:55.637Z,7.02
2023-01-03T03:08:07.616Z,7.05
2023-01-03T03:08:19.685Z,7.05
2023-01-03T03:08:32.513Z,7.06
2023-01-03T03:08:46.156Z,7.08
2023-01-03T03:08:58.344Z,7.09
2023-01-03T03:09:10.303Z,7.14
2023-01-03T03:09:22.217Z,7.15
2023-01-03T03:09:54.203Z,7.15
2023-01-03T03:10:25.964Z,6.99
2023-01-03T03:10:58.340Z,7.06
2023-01-03T03:11:29.083Z,7.01
2023-01-03T03:12:02.024Z,6.83
2023-01-03T03:12:32.335Z,6.73
2023-01-03T03:13:06.600Z,6.80
2023-01-03T03:13:28.469Z,6.76
2023-01-03T03:13:46.172Z,6.75
2023-01-03T03:14:24.989Z,6.86
2023-01-03T03:14:43.713Z,6.92
2023-01-03T03:14:57.501Z,6.93
2023-01-03T03:15:12.508Z,6.96
2023-01-03T03:15:30.571Z,6.96
2023-01-03T03:15:52.524Z,6.98
2023-01-03T03:16:17.212Z,6.95
2023-01-03T03:16:47.808Z,6.95
2023-01-03T03:17:05.726Z,6.92
2023-01-03T03:17:24.545Z,6.97
2023-01-03T03:17:38.396Z,6.96
2023-01-03T03:17:59.567Z,7.02
2023-01-03T03:18:18.928Z,7.05
2023-01-03T03:18:39.655Z,7.10
2023-01-03T03:18:59.088Z,7.13
2023-01-03T03:19:41.741Z,7.19
2023-01-03T03:20:15.268Z,7.23
2023-01-03T03:20:46.258Z,7.27
2023-01-03T03:21:18.810Z,7.29
2023-01-03T03:21:53.218Z,7.28
2023-01-03T03:22:29.980Z,7.34
2023-01-03T03:23:12.373Z,7.34
2023-01-03T03:23:48.662Z,7.28
2023-01-03T03:24:26.126Z,7.24
2023-01-03T03:24:50.356Z,7.15
2023-01-03T03:25:09.539Z,7.08
2023-01-03T03:25:24.020Z,7.04
2023-01-03T03:25:49.309Z,7.02
2023-01-03T03:26:10.802Z,7.00
2023-01-03T03:26:30.783Z,6.99
2023-01-03T03:26:46.030Z,6.97
2023-01-03T03:26:59.836Z,6.95
2023-01-03T03:27:35.580Z,6.95
2023-01-03T03:28:09.951Z,6.88
2023-01-03T03:28:34.952Z,6.85
2023-01-03T03:28:53.534Z,6.74
2023-01-03T03:29:11.905Z,6.72
2023-01-03T03:29:27.975Z,6.63
2023-01-03T03:29:40.346Z,6.67
2023-01-03T03:29:56.686Z,6.73
2023-01-03T03:30:14.300Z,6.80
2023-01-03T03:30:30.662Z,6.80
2023-01-03T03:30:45.695Z,6.85
2023-01-03T03:31:03.018Z,6.91
2023-01-03T03:31:35.529Z,7.01
2023-01-03T03:31:50.561Z,7.06
2023-01-03T03:32:02.724Z,7.10
2023-01-03T03:32:15.062Z,7.14
2023-01-03T03:32:31.028Z,7.17
2023-01-03T03:32:45.397Z,7.19
2023-01-03T03:33:06.193Z,7.20
2023-01-03T03:33:22.765Z,7.25
2023-01-03T03:33:41.555Z,7.28
2023-01-03T03:34:07.458Z,7.33
2023-01-03T03:34:22.113Z,7.38
2023-01-03T03:34:38.137Z,7.37
2023-01-03T03:34:50.683Z,7.35
2023-01-03T03:35:08.932Z,7.34
2023-01-03T03:35:24.359Z,7.38
2023-01-03T03:36:02.445Z,7.32
2023-01-03T03:36:52.473Z,7.06
2023-01-03T03:37:12.073Z,7.07
2023-01-03T03:37:27.262Z,6.99
2023-01-03T03:37:42.525Z,6.94
2023-01-03T03:38:00.294Z,6.94
2023-01-03T03:38:15.990Z,6.95
2023-01-03T03:38:33.816Z,6.98
2023-01-03T03:38:46.427Z,7.04
2023-01-03T03:38:59.461Z,7.03
2023-01-03T03:39:31.412Z,6.95
2023-01-03T03:40:04.368Z,7.04
2023-01-03T03:40:34.968Z,7.12
2023-01-03T03:41:17.924Z,6.96
2023-01-03T03:42:01.771Z,6.99
2023-01-03T03:42:44.223Z,6.92
2023-01-03T03:43:40.290Z,6.99
2023-01-03T03:44:28.077Z,7.04
2023-01-03T03:45:02.925Z,7.13
2023-01-03T03:45:39.491Z,7.23
2023-01-03T03:46:10.400Z,7.18
2023-01-03T03:46:31.932Z,7.16
2023-01-03T03:46:54.524Z,7.16
2023-01-03T03:47:31.796Z,7.13
2023-01-03T03:48:06.926Z,7.21
2023-01-03T03:48:59.860Z,7.19
2023-01-03T03:49:40.062Z,7.27
2023-01-03T03:49:55.849Z,7.36
2023-01-03T03:50:20.767Z,7.38
2023-01-03T03:50:51.283Z,7.35
2023-01-03T03:51:11.249Z,7.44
2023-01-03T03:51:29.145Z,7.39